sensor_id;sensor_type;location;lat;lon;timestamp;P1;durP1;ratioP1;P2;durP2;ratioP2
18322;SDS011;9287;49.456;11.064;2023-11-18T00:01:20;5.40;;;4.90;;
18322;SDS011;9287;49.456;11.064;2023-11-18T00:03:48;6.33;;;4.77;;
18322;SDS011;9287;49.456;11.064;2023-11-18T00:06:17;6.27;;;4.77;;
18322;SDS011;9287;49.456;11.064;2023-11-18T00:08:45;5.30;;;4.80;;
18322;SDS011;9287;49.456;11.064;2023-11-18T00:11:13;7.30;;;5.67;;
18322;SDS011;9287;49.456;11.064;2023-11-18T00:13:41;6.10;;;5.50;;
18322;SDS011;9287;49.456;11.064;2023-11-18T00:16:10;7.50;;;5.20;;
18322;SDS011;9287;49.456;11.064;2023-11-18T00:18:39;5.60;;;4.53;;
18322;SDS011;9287;49.456;11.064;2023-11-18T00:21:09;5.77;;;4.90;;
18322;SDS011;9287;49.456;11.064;2023-11-18T00:23:41;4.97;;;4.53;;
18322;SDS011;9287;49.456;11.064;2023-11-18T00:26:09;5.23;;;4.73;;
18322;SDS011;9287;49.456;11.064;2023-11-18T00:28:37;4.97;;;4.50;;
18322;SDS011;9287;49.456;11.064;2023-11-18T00:31:05;5.17;;;4.67;;
18322;SDS011;9287;49.456;11.064;2023-11-18T00:33:34;6.53;;;5.07;;
18322;SDS011;9287;49.456;11.064;2023-11-18T00:36:02;6.77;;;4.70;;
18322;SDS011;9287;49.456;11.064;2023-11-18T00:38:31;6.30;;;4.93;;
18322;SDS011;9287;49.456;11.064;2023-11-18T00:41:00;8.80;;;5.27;;
18322;SDS011;9287;49.456;11.064;2023-11-18T00:43:28;8.10;;;5.10;;
18322;SDS011;9287;49.456;11.064;2023-11-18T00:45:57;4.87;;;4.40;;
18322;SDS011;9287;49.456;11.064;2023-11-18T00:48:26;5.00;;;4.57;;
18322;SDS011;9287;49.456;11.064;2023-11-18T00:50:54;5.67;;;4.50;;
18322;SDS011;9287;49.456;11.064;2023-11-18T00:53:23;5.23;;;4.73;;
18322;SDS011;9287;49.456;11.064;2023-11-18T00:55:51;4.90;;;4.20;;
18322;SDS011;9287;49.456;11.064;2023-11-18T00:58:22;7.00;;;4.53;;
18322;SDS011;9287;49.456;11.064;2023-11-18T01:00:50;6.20;;;3.97;;
18322;SDS011;9287;49.456;11.064;2023-11-18T01:03:19;4.93;;;4.43;;
18322;SDS011;9287;49.456;11.064;2023-11-18T01:05:47;4.53;;;3.90;;
18322;SDS011;9287;49.456;11.064;2023-11-18T01:08:15;3.97;;;3.67;;
18322;SDS011;9287;49.456;11.064;2023-11-18T01:10:44;4.50;;;4.10;;
18322;SDS011;9287;49.456;11.064;2023-11-18T01:13:12;5.83;;;4.83;;
18322;SDS011;9287;49.456;11.064;2023-11-18T01:15:44;4.80;;;4.40;;
18322;SDS011;9287;49.456;11.064;2023-11-18T01:18:11;6.33;;;4.97;;
18322;SDS011;9287;49.456;11.064;2023-11-18T01:20:39;5.43;;;4.30;;
18322;SDS011;9287;49.456;11.064;2023-11-18T01:23:07;5.70;;;4.57;;
18322;SDS011;9287;49.456;11.064;2023-11-18T01:25:35;5.93;;;4.13;;
18322;SDS011;9287;49.456;11.064;2023-11-18T01:28:08;6.73;;;4.37;;
18322;SDS011;9287;49.456;11.064;2023-11-18T01:30:36;6.43;;;4.43;;
18322;SDS011;9287;49.456;11.064;2023-11-18T01:33:05;5.93;;;4.37;;
18322;SDS011;9287;49.456;11.064;2023-11-18T01:35:34;4.47;;;4.07;;
18322;SDS011;9287;49.456;11.064;2023-11-18T01:38:02;4.57;;;4.17;;
18322;SDS011;9287;49.456;11.064;2023-11-18T01:40:32;5.43;;;4.63;;
18322;SDS011;9287;49.456;11.064;2023-11-18T01:43:02;5.33;;;4.50;;
18322;SDS011;9287;49.456;11.064;2023-11-18T01:45:37;5.37;;;4.83;;
18322;SDS011;9287;49.456;11.064;2023-11-18T01:48:08;5.50;;;4.60;;
18322;SDS011;9287;49.456;11.064;2023-11-18T01:50:38;5.77;;;4.50;;
18322;SDS011;9287;49.456;11.064;2023-11-18T01:53:08;5.93;;;5.20;;
18322;SDS011;9287;49.456;11.064;2023-11-18T01:55:40;5.13;;;4.67;;
18322;SDS011;9287;49.456;11.064;2023-11-18T01:58:09;5.67;;;5.17;;
18322;SDS011;9287;49.456;11.064;2023-11-18T02:00:39;7.17;;;5.13;;
18322;SDS011;9287;49.456;11.064;2023-11-18T02:03:10;5.53;;;5.00;;
18322;SDS011;9287;49.456;11.064;2023-11-18T02:05:38;7.63;;;5.53;;
18322;SDS011;9287;49.456;11.064;2023-11-18T02:08:06;7.93;;;5.80;;
18322;SDS011;9287;49.456;11.064;2023-11-18T02:10:34;7.60;;;6.17;;
18322;SDS011;9287;49.456;11.064;2023-11-18T02:13:09;6.77;;;6.00;;
18322;SDS011;9287;49.456;11.064;2023-11-18T02:15:46;7.40;;;6.10;;
18322;SDS011;9287;49.456;11.064;2023-11-18T02:18:16;9.03;;;6.20;;
18322;SDS011;9287;49.456;11.064;2023-11-18T02:20:44;6.80;;;5.70;;
18322;SDS011;9287;49.456;11.064;2023-11-18T02:23:14;7.80;;;6.13;;
18322;SDS011;9287;49.456;11.064;2023-11-18T02:25:45;7.40;;;6.67;;
18322;SDS011;9287;49.456;11.064;2023-11-18T02:28:14;7.37;;;6.20;;
18322;SDS011;9287;49.456;11.064;2023-11-18T02:30:42;7.03;;;6.30;;
18322;SDS011;9287;49.456;11.064;2023-11-18T02:33:14;9.40;;;6.40;;
18322;SDS011;9287;49.456;11.064;2023-11-18T02:35:46;6.97;;;6.27;;
18322;SDS011;9287;49.456;11.064;2023-11-18T02:38:19;7.00;;;6.30;;
18322;SDS011;9287;49.456;11.064;2023-11-18T02:40:54;6.80;;;6.20;;
18322;SDS011;9287;49.456;11.064;2023-11-18T02:43:25;7.10;;;6.00;;
18322;SDS011;9287;49.456;11.064;2023-11-18T02:45:55;6.30;;;5.70;;
18322;SDS011;9287;49.456;11.064;2023-11-18T02:48:26;6.77;;;6.17;;
18322;SDS011;9287;49.456;11.064;2023-11-18T02:50:54;8.63;;;6.30;;
18322;SDS011;9287;49.456;11.064;2023-11-18T02:53:22;6.60;;;5.90;;
18322;SDS011;9287;49.456;11.064;2023-11-18T02:55:50;7.63;;;6.47;;
18322;SDS011;9287;49.456;11.064;2023-11-18T02:58:20;6.70;;;6.07;;
18322;SDS011;9287;49.456;11.064;2023-11-18T03:00:48;7.93;;;6.37;;
18322;SDS011;9287;49.456;11.064;2023-11-18T03:03:16;8.03;;;5.93;;
18322;SDS011;9287;49.456;11.064;2023-11-18T03:05:44;9.33;;;6.43;;
18322;SDS011;9287;49.456;11.064;2023-11-18T03:08:11;8.00;;;6.00;;
18322;SDS011;9287;49.456;11.064;2023-11-18T03:10:39;7.67;;;5.93;;
18322;SDS011;9287;49.456;11.064;2023-11-18T03:13:10;6.30;;;5.70;;
18322;SDS011;9287;49.456;11.064;2023-11-18T03:15:40;8.70;;;7.00;;
18322;SDS011;9287;49.456;11.064;2023-11-18T03:18:09;8.90;;;7.17;;
18322;SDS011;9287;49.456;11.064;2023-11-18T03:20:37;10.43;;;7.00;;
18322;SDS011;9287;49.456;11.064;2023-11-18T03:23:05;7.67;;;6.87;;
18322;SDS011;9287;49.456;11.064;2023-11-18T03:25:35;9.03;;;6.67;;
18322;SDS011;9287;49.456;11.064;2023-11-18T03:28:04;7.93;;;6.77;;
18322;SDS011;9287;49.456;11.064;2023-11-18T03:30:33;9.43;;;6.60;;
18322;SDS011;9287;49.456;11.064;2023-11-18T03:33:04;7.30;;;6.50;;
18322;SDS011;9287;49.456;11.064;2023-11-18T03:35:36;8.00;;;7.20;;
18322;SDS011;9287;49.456;11.064;2023-11-18T03:38:05;7.30;;;6.03;;
18322;SDS011;9287;49.456;11.064;2023-11-18T03:40:33;7.63;;;6.30;;
18322;SDS011;9287;49.456;11.064;2023-11-18T03:43:01;8.63;;;6.30;;
18322;SDS011;9287;49.456;11.064;2023-11-18T03:45:30;8.83;;;6.90;;
18322;SDS011;9287;49.456;11.064;2023-11-18T03:47:58;10.20;;;7.17;;
18322;SDS011;9287;49.456;11.064;2023-11-18T03:50:28;8.37;;;6.67;;
18322;SDS011;9287;49.456;11.064;2023-11-18T03:52:56;9.67;;;7.03;;
18322;SDS011;9287;49.456;11.064;2023-11-18T03:55:25;8.60;;;6.67;;
18322;SDS011;9287;49.456;11.064;2023-11-18T03:57:53;9.63;;;5.87;;
18322;SDS011;9287;49.456;11.064;2023-11-18T04:00:21;8.33;;;6.47;;
18322;SDS011;9287;49.456;11.064;2023-11-18T04:02:49;8.13;;;6.87;;
18322;SDS011;9287;49.456;11.064;2023-11-18T04:05:16;9.03;;;6.10;;
18322;SDS011;9287;49.456;11.064;2023-11-18T04:07:46;8.33;;;6.67;;
18322;SDS011;9287;49.456;11.064;2023-11-18T04:10:13;7.97;;;6.17;;
18322;SDS011;9287;49.456;11.064;2023-11-18T04:12:44;6.50;;;6.00;;
18322;SDS011;9287;49.456;11.064;2023-11-18T04:15:14;6.33;;;5.73;;
18322;SDS011;9287;49.456;11.064;2023-11-18T04:17:42;8.23;;;6.60;;
18322;SDS011;9287;49.456;11.064;2023-11-18T04:20:11;7.13;;;6.10;;
18322;SDS011;9287;49.456;11.064;2023-11-18T04:22:43;6.97;;;6.10;;
18322;SDS011;9287;49.456;11.064;2023-11-18T04:25:12;8.27;;;6.97;;
18322;SDS011;9287;49.456;11.064;2023-11-18T04:27:41;7.30;;;6.10;;
18322;SDS011;9287;49.456;11.064;2023-11-18T04:30:12;10.90;;;7.13;;
18322;SDS011;9287;49.456;11.064;2023-11-18T04:32:40;6.97;;;6.10;;
18322;SDS011;9287;49.456;11.064;2023-11-18T04:35:10;7.10;;;6.20;;
18322;SDS011;9287;49.456;11.064;2023-11-18T04:37:39;7.50;;;6.63;;
18322;SDS011;9287;49.456;11.064;2023-11-18T04:40:10;6.97;;;6.33;;
18322;SDS011;9287;49.456;11.064;2023-11-18T04:42:42;6.97;;;6.00;;
18322;SDS011;9287;49.456;11.064;2023-11-18T04:45:10;11.37;;;6.60;;
18322;SDS011;9287;49.456;11.064;2023-11-18T04:47:40;9.00;;;6.40;;
18322;SDS011;9287;49.456;11.064;2023-11-18T04:50:10;8.33;;;6.37;;
18322;SDS011;9287;49.456;11.064;2023-11-18T04:52:38;7.57;;;6.77;;
18322;SDS011;9287;49.456;11.064;2023-11-18T04:55:07;8.80;;;6.60;;
18322;SDS011;9287;49.456;11.064;2023-11-18T04:57:36;7.53;;;5.70;;
18322;SDS011;9287;49.456;11.064;2023-11-18T05:00:07;9.57;;;6.73;;
18322;SDS011;9287;49.456;11.064;2023-11-18T05:02:38;8.93;;;6.30;;
18322;SDS011;9287;49.456;11.064;2023-11-18T05:05:06;7.40;;;6.70;;
18322;SDS011;9287;49.456;11.064;2023-11-18T05:07:34;7.23;;;5.70;;
18322;SDS011;9287;49.456;11.064;2023-11-18T05:10:02;7.83;;;6.13;;
18322;SDS011;9287;49.456;11.064;2023-11-18T05:12:30;8.50;;;6.03;;
18322;SDS011;9287;49.456;11.064;2023-11-18T05:15:02;8.53;;;5.97;;
18322;SDS011;9287;49.456;11.064;2023-11-18T05:17:35;6.40;;;5.80;;
18322;SDS011;9287;49.456;11.064;2023-11-18T05:20:04;7.63;;;6.10;;
18322;SDS011;9287;49.456;11.064;2023-11-18T05:22:37;6.63;;;5.87;;
18322;SDS011;9287;49.456;11.064;2023-11-18T05:25:06;6.67;;;5.57;;
18322;SDS011;9287;49.456;11.064;2023-11-18T05:27:36;5.87;;;5.17;;
18322;SDS011;9287;49.456;11.064;2023-11-18T05:30:07;5.70;;;5.03;;
18322;SDS011;9287;49.456;11.064;2023-11-18T05:32:39;5.70;;;5.20;;
18322;SDS011;9287;49.456;11.064;2023-11-18T05:35:07;6.40;;;5.47;;
18322;SDS011;9287;49.456;11.064;2023-11-18T05:37:38;5.80;;;5.30;;
18322;SDS011;9287;49.456;11.064;2023-11-18T05:40:07;6.07;;;5.53;;
18322;SDS011;9287;49.456;11.064;2023-11-18T05:42:38;7.97;;;5.17;;
18322;SDS011;9287;49.456;11.064;2023-11-18T05:45:10;6.90;;;5.53;;
18322;SDS011;9287;49.456;11.064;2023-11-18T05:47:45;9.60;;;5.67;;
18322;SDS011;9287;49.456;11.064;2023-11-18T05:50:16;6.53;;;5.87;;
18322;SDS011;9287;49.456;11.064;2023-11-18T05:52:44;7.20;;;5.27;;
18322;SDS011;9287;49.456;11.064;2023-11-18T05:55:12;5.43;;;5.03;;
18322;SDS011;9287;49.456;11.064;2023-11-18T05:57:40;6.37;;;5.20;;
18322;SDS011;9287;49.456;11.064;2023-11-18T06:00:15;6.90;;;5.83;;
18322;SDS011;9287;49.456;11.064;2023-11-18T06:02:57;5.97;;;5.47;;
18322;SDS011;9287;49.456;11.064;2023-11-18T06:05:25;5.97;;;4.87;;
18322;SDS011;9287;49.456;11.064;2023-11-18T06:07:55;5.97;;;5.37;;
18322;SDS011;9287;49.456;11.064;2023-11-18T06:10:25;6.67;;;5.57;;
18322;SDS011;9287;49.456;11.064;2023-11-18T06:12:57;6.53;;;5.80;;
18322;SDS011;9287;49.456;11.064;2023-11-18T06:15:25;6.03;;;5.43;;
18322;SDS011;9287;49.456;11.064;2023-11-18T06:17:54;7.77;;;6.07;;
18322;SDS011;9287;49.456;11.064;2023-11-18T06:20:23;6.87;;;6.17;;
18322;SDS011;9287;49.456;11.064;2023-11-18T06:22:51;7.03;;;5.87;;
18322;SDS011;9287;49.456;11.064;2023-11-18T06:25:21;6.80;;;6.20;;
18322;SDS011;9287;49.456;11.064;2023-11-18T06:27:52;7.37;;;5.27;;
18322;SDS011;9287;49.456;11.064;2023-11-18T06:30:20;7.37;;;6.10;;
18322;SDS011;9287;49.456;11.064;2023-11-18T06:32:49;6.97;;;5.40;;
18322;SDS011;9287;49.456;11.064;2023-11-18T06:35:17;6.13;;;5.53;;
18322;SDS011;9287;49.456;11.064;2023-11-18T06:37:49;8.10;;;5.90;;
18322;SDS011;9287;49.456;11.064;2023-11-18T06:40:17;7.97;;;6.07;;
18322;SDS011;9287;49.456;11.064;2023-11-18T06:42:45;6.30;;;5.50;;
18322;SDS011;9287;49.456;11.064;2023-11-18T06:45:13;5.77;;;5.27;;
18322;SDS011;9287;49.456;11.064;2023-11-18T06:47:43;8.50;;;6.87;;
18322;SDS011;9287;49.456;11.064;2023-11-18T06:50:12;7.77;;;5.97;;
18322;SDS011;9287;49.456;11.064;2023-11-18T06:52:42;7.33;;;6.00;;
18322;SDS011;9287;49.456;11.064;2023-11-18T06:55:14;7.70;;;6.73;;
18322;SDS011;9287;49.456;11.064;2023-11-18T06:57:42;8.00;;;6.57;;
18322;SDS011;9287;49.456;11.064;2023-11-18T07:00:11;8.03;;;6.80;;
18322;SDS011;9287;49.456;11.064;2023-11-18T07:02:41;8.77;;;6.90;;
18322;SDS011;9287;49.456;11.064;2023-11-18T07:05:09;8.30;;;6.33;;
18322;SDS011;9287;49.456;11.064;2023-11-18T07:07:38;10.70;;;6.90;;
18322;SDS011;9287;49.456;11.064;2023-11-18T07:10:08;9.03;;;6.93;;
18322;SDS011;9287;49.456;11.064;2023-11-18T07:12:41;9.37;;;7.33;;
18322;SDS011;9287;49.456;11.064;2023-11-18T07:15:09;9.53;;;6.07;;
18322;SDS011;9287;49.456;11.064;2023-11-18T07:17:38;8.93;;;6.57;;
18322;SDS011;9287;49.456;11.064;2023-11-18T07:20:07;7.87;;;6.30;;
18322;SDS011;9287;49.456;11.064;2023-11-18T07:22:37;8.17;;;6.33;;
18322;SDS011;9287;49.456;11.064;2023-11-18T07:25:06;9.37;;;7.30;;
18322;SDS011;9287;49.456;11.064;2023-11-18T07:27:35;9.60;;;7.57;;
18322;SDS011;9287;49.456;11.064;2023-11-18T07:30:05;8.30;;;7.13;;
18322;SDS011;9287;49.456;11.064;2023-11-18T07:32:36;10.60;;;7.83;;
18322;SDS011;9287;49.456;11.064;2023-11-18T07:35:06;10.37;;;8.17;;
18322;SDS011;9287;49.456;11.064;2023-11-18T07:37:38;9.37;;;7.20;;
18322;SDS011;9287;49.456;11.064;2023-11-18T07:40:06;10.30;;;7.90;;
18322;SDS011;9287;49.456;11.064;2023-11-18T07:42:38;9.27;;;7.60;;
18322;SDS011;9287;49.456;11.064;2023-11-18T07:45:08;10.40;;;7.70;;
18322;SDS011;9287;49.456;11.064;2023-11-18T07:47:44;10.43;;;8.20;;
18322;SDS011;9287;49.456;11.064;2023-11-18T07:50:15;10.90;;;8.37;;
18322;SDS011;9287;49.456;11.064;2023-11-18T07:52:43;11.73;;;8.97;;
18322;SDS011;9287;49.456;11.064;2023-11-18T07:55:11;12.67;;;9.03;;
18322;SDS011;9287;49.456;11.064;2023-11-18T07:57:39;13.50;;;9.57;;
18322;SDS011;9287;49.456;11.064;2023-11-18T08:00:09;12.97;;;9.53;;
18322;SDS011;9287;49.456;11.064;2023-11-18T08:02:38;13.83;;;9.97;;
18322;SDS011;9287;49.456;11.064;2023-11-18T08:05:06;12.33;;;9.50;;
18322;SDS011;9287;49.456;11.064;2023-11-18T08:07:35;11.50;;;9.07;;
18322;SDS011;9287;49.456;11.064;2023-11-18T08:10:04;12.30;;;8.30;;
18322;SDS011;9287;49.456;11.064;2023-11-18T08:12:39;11.97;;;8.37;;
18322;SDS011;9287;49.456;11.064;2023-11-18T08:15:09;14.77;;;8.97;;
18322;SDS011;9287;49.456;11.064;2023-11-18T08:17:37;9.60;;;7.50;;
18322;SDS011;9287;49.456;11.064;2023-11-18T08:20:05;12.20;;;9.43;;
18322;SDS011;9287;49.456;11.064;2023-11-18T08:22:40;11.77;;;9.27;;
18322;SDS011;9287;49.456;11.064;2023-11-18T08:25:10;13.70;;;8.83;;
18322;SDS011;9287;49.456;11.064;2023-11-18T08:27:39;13.83;;;9.53;;
18322;SDS011;9287;49.456;11.064;2023-11-18T08:30:09;13.53;;;9.93;;
18322;SDS011;9287;49.456;11.064;2023-11-18T08:32:39;15.17;;;10.67;;
18322;SDS011;9287;49.456;11.064;2023-11-18T08:35:10;14.40;;;10.20;;
18322;SDS011;9287;49.456;11.064;2023-11-18T08:37:40;15.43;;;9.27;;
18322;SDS011;9287;49.456;11.064;2023-11-18T08:40:10;13.30;;;10.00;;
18322;SDS011;9287;49.456;11.064;2023-11-18T08:42:41;13.87;;;9.90;;
18322;SDS011;9287;49.456;11.064;2023-11-18T08:45:16;14.83;;;10.70;;
18322;SDS011;9287;49.456;11.064;2023-11-18T08:47:45;13.17;;;10.77;;
18322;SDS011;9287;49.456;11.064;2023-11-18T08:50:13;13.77;;;9.80;;
18322;SDS011;9287;49.456;11.064;2023-11-18T08:52:43;12.73;;;9.93;;
18322;SDS011;9287;49.456;11.064;2023-11-18T08:55:13;15.70;;;9.90;;
18322;SDS011;9287;49.456;11.064;2023-11-18T08:57:46;12.53;;;10.03;;
18322;SDS011;9287;49.456;11.064;2023-11-18T09:00:27;15.43;;;10.60;;
18322;SDS011;9287;49.456;11.064;2023-11-18T09:03:14;17.97;;;11.10;;
18322;SDS011;9287;49.456;11.064;2023-11-18T09:05:53;15.07;;;10.40;;
18322;SDS011;9287;49.456;11.064;2023-11-18T09:08:25;14.33;;;10.40;;
18322;SDS011;9287;49.456;11.064;2023-11-18T09:10:58;16.43;;;10.70;;
18322;SDS011;9287;49.456;11.064;2023-11-18T09:13:27;13.90;;;10.17;;
18322;SDS011;9287;49.456;11.064;2023-11-18T09:15:58;13.50;;;9.27;;
18322;SDS011;9287;49.456;11.064;2023-11-18T09:18:29;13.63;;;9.80;;
18322;SDS011;9287;49.456;11.064;2023-11-18T09:21:00;12.80;;;9.03;;
18322;SDS011;9287;49.456;11.064;2023-11-18T09:23:30;13.93;;;9.83;;
18322;SDS011;9287;49.456;11.064;2023-11-18T09:26:01;12.83;;;9.27;;
18322;SDS011;9287;49.456;11.064;2023-11-18T09:28:34;12.50;;;9.77;;
18322;SDS011;9287;49.456;11.064;2023-11-18T09:31:05;11.17;;;9.17;;
18322;SDS011;9287;49.456;11.064;2023-11-18T09:33:38;13.30;;;10.43;;
18322;SDS011;9287;49.456;11.064;2023-11-18T09:36:11;15.13;;;10.57;;
18322;SDS011;9287;49.456;11.064;2023-11-18T09:38:40;17.93;;;10.43;;
18322;SDS011;9287;49.456;11.064;2023-11-18T09:41:10;13.30;;;10.10;;
18322;SDS011;9287;49.456;11.064;2023-11-18T09:43:39;12.90;;;9.70;;
18322;SDS011;9287;49.456;11.064;2023-11-18T09:46:13;14.50;;;9.97;;
18322;SDS011;9287;49.456;11.064;2023-11-18T09:48:43;13.73;;;10.03;;
18322;SDS011;9287;49.456;11.064;2023-11-18T09:51:14;15.50;;;9.77;;
18322;SDS011;9287;49.456;11.064;2023-11-18T09:53:49;13.00;;;9.57;;
18322;SDS011;9287;49.456;11.064;2023-11-18T09:56:20;16.37;;;10.73;;
18322;SDS011;9287;49.456;11.064;2023-11-18T09:59:06;12.60;;;9.70;;
18322;SDS011;9287;49.456;11.064;2023-11-18T10:01:50;13.63;;;9.63;;
18322;SDS011;9287;49.456;11.064;2023-11-18T10:04:21;12.93;;;10.03;;
18322;SDS011;9287;49.456;11.064;2023-11-18T10:06:54;15.57;;;9.27;;
18322;SDS011;9287;49.456;11.064;2023-11-18T10:09:23;11.47;;;9.27;;
18322;SDS011;9287;49.456;11.064;2023-11-18T10:11:55;13.03;;;9.57;;
18322;SDS011;9287;49.456;11.064;2023-11-18T10:14:34;14.90;;;9.93;;
18322;SDS011;9287;49.456;11.064;2023-11-18T10:17:04;13.10;;;10.00;;
18322;SDS011;9287;49.456;11.064;2023-11-18T10:19:49;13.90;;;10.10;;
18322;SDS011;9287;49.456;11.064;2023-11-18T10:22:20;11.13;;;9.30;;
18322;SDS011;9287;49.456;11.064;2023-11-18T10:24:54;12.90;;;9.83;;
18322;SDS011;9287;49.456;11.064;2023-11-18T10:27:27;12.40;;;10.10;;
18322;SDS011;9287;49.456;11.064;2023-11-18T10:29:55;12.80;;;9.50;;
18322;SDS011;9287;49.456;11.064;2023-11-18T10:32:25;13.73;;;10.33;;
18322;SDS011;9287;49.456;11.064;2023-11-18T10:34:55;13.43;;;10.30;;
18322;SDS011;9287;49.456;11.064;2023-11-18T10:37:30;12.10;;;9.20;;
18322;SDS011;9287;49.456;11.064;2023-11-18T10:40:03;11.80;;;10.10;;
18322;SDS011;9287;49.456;11.064;2023-11-18T10:42:32;12.00;;;10.30;;
18322;SDS011;9287;49.456;11.064;2023-11-18T10:45:00;11.73;;;9.83;;
18322;SDS011;9287;49.456;11.064;2023-11-18T10:47:33;10.70;;;9.33;;
18322;SDS011;9287;49.456;11.064;2023-11-18T10:50:02;12.00;;;10.53;;
18322;SDS011;9287;49.456;11.064;2023-11-18T10:52:31;13.43;;;10.43;;
18322;SDS011;9287;49.456;11.064;2023-11-18T10:55:01;11.83;;;9.50;;
18322;SDS011;9287;49.456;11.064;2023-11-18T10:57:39;10.17;;;9.17;;
18322;SDS011;9287;49.456;11.064;2023-11-18T11:00:09;15.73;;;10.77;;
18322;SDS011;9287;49.456;11.064;2023-11-18T11:02:43;17.20;;;11.93;;
18322;SDS011;9287;49.456;11.064;2023-11-18T11:05:13;11.67;;;9.57;;
18322;SDS011;9287;49.456;11.064;2023-11-18T11:07:59;10.23;;;8.83;;
18322;SDS011;9287;49.456;11.064;2023-11-18T11:10:29;9.70;;;8.43;;
18322;SDS011;9287;49.456;11.064;2023-11-18T11:12:58;11.07;;;9.20;;
18322;SDS011;9287;49.456;11.064;2023-11-18T11:15:29;14.17;;;10.63;;
18322;SDS011;9287;49.456;11.064;2023-11-18T11:18:18;11.80;;;9.90;;
18322;SDS011;9287;49.456;11.064;2023-11-18T11:20:53;13.13;;;9.70;;
18322;SDS011;9287;49.456;11.064;2023-11-18T11:23:30;10.77;;;8.87;;
18322;SDS011;9287;49.456;11.064;2023-11-18T11:26:13;12.77;;;10.33;;
18322;SDS011;9287;49.456;11.064;2023-11-18T11:28:57;10.60;;;9.50;;
18322;SDS011;9287;49.456;11.064;2023-11-18T11:31:31;11.83;;;9.23;;
18322;SDS011;9287;49.456;11.064;2023-11-18T11:34:06;13.97;;;10.73;;
18322;SDS011;9287;49.456;11.064;2023-11-18T11:36:42;13.60;;;9.73;;
18322;SDS011;9287;49.456;11.064;2023-11-18T11:39:13;10.97;;;9.63;;
18322;SDS011;9287;49.456;11.064;2023-11-18T11:41:50;11.13;;;9.87;;
18322;SDS011;9287;49.456;11.064;2023-11-18T11:44:27;10.53;;;9.43;;
18322;SDS011;9287;49.456;11.064;2023-11-18T11:46:58;11.13;;;9.93;;
18322;SDS011;9287;49.456;11.064;2023-11-18T11:49:32;10.60;;;9.50;;
18322;SDS011;9287;49.456;11.064;2023-11-18T11:52:07;10.93;;;9.27;;
18322;SDS011;9287;49.456;11.064;2023-11-18T11:54:45;10.37;;;9.27;;
18322;SDS011;9287;49.456;11.064;2023-11-18T11:57:31;10.10;;;8.90;;
18322;SDS011;9287;49.456;11.064;2023-11-18T12:00:08;10.73;;;9.20;;
18322;SDS011;9287;49.456;11.064;2023-11-18T12:02:52;9.77;;;8.77;;
18322;SDS011;9287;49.456;11.064;2023-11-18T12:05:24;10.77;;;9.67;;
18322;SDS011;9287;49.456;11.064;2023-11-18T12:07:54;11.57;;;8.67;;
18322;SDS011;9287;49.456;11.064;2023-11-18T12:10:26;10.27;;;9.17;;
18322;SDS011;9287;49.456;11.064;2023-11-18T12:13:06;11.10;;;9.40;;
18322;SDS011;9287;49.456;11.064;2023-11-18T12:18:24;10.33;;;9.33;;
18322;SDS011;9287;49.456;11.064;2023-11-18T12:20:53;9.60;;;8.63;;
18322;SDS011;9287;49.456;11.064;2023-11-18T12:23:23;11.27;;;9.13;;
18322;SDS011;9287;49.456;11.064;2023-11-18T12:25:52;9.67;;;8.37;;
18322;SDS011;9287;49.456;11.064;2023-11-18T12:28:25;10.00;;;8.20;;
18322;SDS011;9287;49.456;11.064;2023-11-18T12:30:53;8.13;;;7.37;;
18322;SDS011;9287;49.456;11.064;2023-11-18T12:33:59;8.40;;;7.60;;
18322;SDS011;9287;49.456;11.064;2023-11-18T12:42:58;9.07;;;7.53;;
18322;SDS011;9287;49.456;11.064;2023-11-18T12:48:43;5.63;;;5.13;;
18322;SDS011;9287;49.456;11.064;2023-11-18T12:51:13;6.43;;;5.83;;
18322;SDS011;9287;49.456;11.064;2023-11-18T12:53:49;6.13;;;5.63;;
18322;SDS011;9287;49.456;11.064;2023-11-18T12:56:22;5.47;;;4.97;;
18322;SDS011;9287;49.456;11.064;2023-11-18T12:58:50;4.87;;;4.47;;
18322;SDS011;9287;49.456;11.064;2023-11-18T13:01:20;3.77;;;3.47;;
18322;SDS011;9287;49.456;11.064;2023-11-18T13:03:49;4.77;;;4.37;;
18322;SDS011;9287;49.456;11.064;2023-11-18T13:06:21;5.70;;;4.73;;
18322;SDS011;9287;49.456;11.064;2023-11-18T13:08:54;4.00;;;3.70;;
18322;SDS011;9287;49.456;11.064;2023-11-18T13:11:25;3.63;;;3.33;;
18322;SDS011;9287;49.456;11.064;2023-11-18T13:13:53;5.03;;;3.37;;
18322;SDS011;9287;49.456;11.064;2023-11-18T13:16:21;3.83;;;3.13;;
18322;SDS011;9287;49.456;11.064;2023-11-18T13:18:52;5.00;;;3.83;;
18322;SDS011;9287;49.456;11.064;2023-11-18T13:21:22;3.97;;;3.67;;
18322;SDS011;9287;49.456;11.064;2023-11-18T13:23:52;3.27;;;2.97;;
18322;SDS011;9287;49.456;11.064;2023-11-18T13:26:21;4.50;;;3.60;;
18322;SDS011;9287;49.456;11.064;2023-11-18T13:28:52;7.20;;;2.90;;
18322;SDS011;9287;49.456;11.064;2023-11-18T13:31:20;3.13;;;2.93;;
18322;SDS011;9287;49.456;11.064;2023-11-18T13:33:48;4.50;;;4.13;;
18322;SDS011;9287;49.456;11.064;2023-11-18T13:36:17;3.47;;;3.17;;
18322;SDS011;9287;49.456;11.064;2023-11-18T13:38:47;3.27;;;2.97;;
18322;SDS011;9287;49.456;11.064;2023-11-18T13:44:01;3.47;;;3.23;;
18322;SDS011;9287;49.456;11.064;2023-11-18T13:46:29;2.63;;;2.43;;
18322;SDS011;9287;49.456;11.064;2023-11-18T13:48:57;3.47;;;2.57;;
18322;SDS011;9287;49.456;11.064;2023-11-18T13:51:26;3.57;;;3.17;;
18322;SDS011;9287;49.456;11.064;2023-11-18T13:53:54;3.10;;;2.80;;
18322;SDS011;9287;49.456;11.064;2023-11-18T13:56:22;2.97;;;2.70;;
18322;SDS011;9287;49.456;11.064;2023-11-18T13:58:53;3.30;;;3.00;;
18322;SDS011;9287;49.456;11.064;2023-11-18T14:01:23;3.03;;;2.57;;
18322;SDS011;9287;49.456;11.064;2023-11-18T14:03:51;2.80;;;2.60;;
18322;SDS011;9287;49.456;11.064;2023-11-18T14:06:21;4.07;;;3.67;;
18322;SDS011;9287;49.456;11.064;2023-11-18T14:08:49;4.27;;;2.90;;
18322;SDS011;9287;49.456;11.064;2023-11-18T14:11:18;4.63;;;2.50;;
18322;SDS011;9287;49.456;11.064;2023-11-18T14:13:46;3.50;;;1.83;;
18322;SDS011;9287;49.456;11.064;2023-11-18T14:16:14;2.70;;;2.17;;
18322;SDS011;9287;49.456;11.064;2023-11-18T14:18:44;2.53;;;2.27;;
18322;SDS011;9287;49.456;11.064;2023-11-18T14:21:14;2.80;;;2.23;;
18322;SDS011;9287;49.456;11.064;2023-11-18T14:23:42;2.77;;;2.40;;
18322;SDS011;9287;49.456;11.064;2023-11-18T14:26:10;3.17;;;2.80;;
18322;SDS011;9287;49.456;11.064;2023-11-18T14:28:39;3.53;;;3.23;;
18322;SDS011;9287;49.456;11.064;2023-11-18T14:31:09;3.07;;;2.40;;
18322;SDS011;9287;49.456;11.064;2023-11-18T14:33:37;3.60;;;3.00;;
18322;SDS011;9287;49.456;11.064;2023-11-18T14:36:07;4.20;;;2.93;;
18322;SDS011;9287;49.456;11.064;2023-11-18T14:38:37;2.80;;;2.60;;
18322;SDS011;9287;49.456;11.064;2023-11-18T14:41:08;2.60;;;2.40;;
18322;SDS011;9287;49.456;11.064;2023-11-18T14:43:36;2.90;;;2.70;;
18322;SDS011;9287;49.456;11.064;2023-11-18T14:46:04;4.07;;;2.50;;
18322;SDS011;9287;49.456;11.064;2023-11-18T14:48:32;3.70;;;2.53;;
18322;SDS011;9287;49.456;11.064;2023-11-18T14:51:00;2.60;;;2.30;;
18322;SDS011;9287;49.456;11.064;2023-11-18T14:53:31;4.40;;;2.63;;
18322;SDS011;9287;49.456;11.064;2023-11-18T14:56:00;2.27;;;2.07;;
18322;SDS011;9287;49.456;11.064;2023-11-18T14:58:31;3.00;;;2.30;;
18322;SDS011;9287;49.456;11.064;2023-11-18T15:00:59;2.30;;;2.10;;
18322;SDS011;9287;49.456;11.064;2023-11-18T15:03:27;2.30;;;2.10;;
18322;SDS011;9287;49.456;11.064;2023-11-18T15:05:57;2.13;;;1.80;;
18322;SDS011;9287;49.456;11.064;2023-11-18T15:08:25;2.40;;;1.67;;
18322;SDS011;9287;49.456;11.064;2023-11-18T15:10:57;2.30;;;2.10;;
18322;SDS011;9287;49.456;11.064;2023-11-18T15:13:25;3.13;;;2.23;;
18322;SDS011;9287;49.456;11.064;2023-11-18T15:15:54;2.20;;;2.00;;
18322;SDS011;9287;49.456;11.064;2023-11-18T15:18:23;5.73;;;2.20;;